Tiempo atmosférico en la estación meteorológica de Valencia Aeropuerto, València/Valencia (69 m.)



Fecha
DESCASC
Temp. máxima en grados centígrados (hora)
DESCASC
Temp. mínima en grados centígrados (hora)
DESCASC
Temp. media en grados centígrados
DESCASC
Racha de viento máxima en m/sg (hora)
DESCASC
Velocidad máxima media en intervalos de 10 minutos(hora)
DESCASC
Precipitaciones diarias en mm
DESCASC
Precipitaciones de 00:00 a 06:00 en mm
DESCASC
Precipitaciones de 06:00 a 12:00 en mm
DESCASC
Precipitaciones de 12:00 a 18:00 en mm
DESCASC
Precipitaciones de 18:00 a 24:00 en mm
DESCASC
27-01-2020 17.4 (15:00) 5.3 (04:10) 11.3 16.11 (16:30) 11.94 (16:30) 0 0 0 0 0
26-01-2020 19.1 (15:00) 7 (23:50) 13.1 9.17 (12:20) 6.39 (12:00) 0 0 0 0 0
25-01-2020 14.1 (14:10) 9.5 (00:00) 11.8 7.78 (14:20) 5 (14:20) 0 0 0 0 0
24-01-2020 14.8 (15:50) 6.7 (00:00) 10.8 4.72 (01:20) 3.61 (17:40) 0 0 0 0 0
23-01-2020 13.9 (14:20) 3.4 (00:00) 8.6 5 (14:40) 3.89 (20:10) 0.6 0 0 0 0.6
22-01-2020 12.3 (10:00) 6.6 (00:00) 9.5 13.89 (19:00) 8.89 (19:00) 10.4 0 0.7 7.1 2.6
21-01-2020 14 (10:30) 2.6 (00:00) 8.3 19.72 (10:30) 11.94 (05:10) -- 8.9 -- 14.9 0
20-01-2020 9.1 (14:50) 4.9 (00:00) 7 26.67 (16:00) 16.11 (15:30) 26.6 3.5 1.6 6.7 14.8
19-01-2020 13.9 (00:50) 5.9 (00:00) 9.9 18.06 (21:00) 10.83 (23:40) 20.1 0 8.7 7.9 3.5
18-01-2020 17.6 (14:50) 4.8 (00:00) 11.2 12.5 (16:50) 8.06 (16:30) 0 0 0 0 0
17-01-2020 18.4 (15:00) 4.5 (00:00) 11.4 13.33 (11:50) 9.44 (15:40) 0 0 0 0 0
16-01-2020 18.2 (15:40) 2.9 (00:00) 10.6 5.83 (17:00) 4.17 (17:00) 0 0 0 0 0
15-01-2020 19.7 (16:00) 0.6 (00:00) 10.2 7.78 (15:00) 5.28 (16:20) 0 0 0 0 0
14-01-2020 17 (15:30) -1.2 (-00:0) 7.9 6.11 (17:10) 4.17 (17:20) 0 0 0 0 0
13-01-2020 17.4 (15:20) -1.8 (-00:0) 7.8 5 (15:40) 3.33 (16:00) 0 0 0 0 0
12-01-2020 15.2 (15:20) -0.8 (07:50) 7.2 5 (15:30) 3.33 (06:40) 0 0 0 0 0
11-01-2020 16.7 (14:50) 3 (00:00) 9.9 7.78 (03:50) 5.83 (04:30) 0 0 0 0 0
10-01-2020 16 (12:30) 4.1 (00:00) 10 11.67 (15:20) 8.33 (15:20) 0 0 0 0 0
09-01-2020 15.4 (14:40) 2.2 (00:00) 8.8 5.83 (16:40) 4.44 (17:00) 0 0 0 0 0
08-01-2020 15.5 (16:30) 1.7 (00:00) 8.6 -- (--) -- (--) 0 0 0 0 0
07-01-2020 16.9 (14:50) 0.9 (00:00) 8.9 5 (15:10) 3.61 (16:30) 0 0 0 0 0
06-01-2020 15.7 (15:00) 1.8 (00:00) 8.7 5.83 (07:10) 3.61 (07:10) 0 0 0 0 0
05-01-2020 19 (15:20) 1 (00:00) 10 5 (12:40) 4.17 (04:10) 0 0 0 0 0
04-01-2020 16.9 (14:10) 1.5 (00:00) 9.2 5.83 (15:00) 4.17 (16:00) -- 0 0 -- 0
03-01-2020 12.9 (14:20) 0.8 (00:00) 6.8 -- (--) -- (--) 0.4 0 0 0.4 0
02-01-2020 15.2 (15:20) 3.2 (00:00) 9.2 4.72 (16:10) 3.61 (16:50) -- 0 0 -- 0
01-01-2020 14.5 (15:20) 1.3 (00:00) 7.9 4.17 (16:10) 3.06 (16:30) 0 0 0 0 0
31-12-2019 15.4 (15:40) 2.4 (00:00) 8.9 4.72 (10:30) 2.78 (12:20) 0 0 0 0 0
30-12-2019 16 (15:40) 4.6 (00:00) 10.3 6.67 (06:40) 4.72 (06:10) 0 0 0 0 0

Gráficas

Temp. máximas Temp. mínimas Temp. medias Precipitaciones Rachas de viento máximas Velocidades máximas media en intervalos de 10 minutos

Datos horarios

Fecha y hora oficial Temperatura (ºC) Velocidad del viento (km/h) Dirección del viento Racha (km/h) Dirección de racha Precipitación (mm) Presión (hPa) Tendencia (hPa) Humedad (%)
2020-01-28 23:00:00 15.1 19 Sudoeste 26 Sudoeste 0 1014.7 1.1 73
2020-01-28 22:00:00 15.6 16 Sudoeste 22 Sudoeste 0 1014.2 0.6 70
2020-01-28 21:00:00 15.8 22 Oeste 41 Oeste 0 1013.6 0.9 70
2020-01-28 20:00:00 16 20 Sudoeste 28 Oeste 0 1013.6 1 69
2020-01-28 19:00:00 16.1 21 Oeste 42 Oeste 0 1013.6 0.8 68
2020-01-28 18:00:00 16.5 39 Oeste 61 Oeste 0 1012.7 -0.4 65
2020-01-28 17:00:00 16.6 24 Oeste 39 Oeste 0 1012.6 -0.8 64
2020-01-28 16:00:00 16.8 31 Oeste 48 Oeste 0 1012.8 -1.2 63
2020-01-28 15:00:00 16.9 17 Oeste 41 Oeste 0 1013.1 -0.8 62
2020-01-28 14:00:00 17.1 31 Oeste 46 Oeste 0 1013.4 -0.4 61
2020-01-28 13:00:00 17 25 Oeste 59 Oeste -- 1014 0.2 62
2020-01-28 12:00:00 16.1 40 Oeste 58 Noroeste 0 1013.9 0.3 63
2020-01-28 11:00:00 15.6 43 Oeste 58 Oeste 0 1013.8 0.8 65
2020-01-28 10:00:00 14.5 35 Oeste 48 Oeste 0 1013.8 1 70
2020-01-28 09:00:00 14.8 23 Oeste 39 Oeste 0 1013.6 1 68
2020-01-28 08:00:00 14 28 Oeste 48 Oeste 0 1013 0.3 70
2020-01-28 07:00:00 13.8 32 Oeste 54 Oeste 0 1012.8 -0.8 70
2020-01-28 06:00:00 13.6 32 Oeste 42 Oeste 0 1012.6 -1.1 68
2020-01-28 05:00:00 13.6 29 Oeste 45 Oeste 0 1012.7 -0.9 68
2020-01-28 04:00:00 13.4 19 Sudoeste 32 Oeste 0 1013.6 -0.5 68
2020-01-28 03:00:00 13.5 28 Oeste 37 Oeste 0 1013.7 -0.6 66
2020-01-28 02:00:00 13.2 21 Oeste 32 Oeste 0 1013.6 -1 66
2020-01-28 01:00:00 13 22 Oeste 30 Oeste 0 1014.1 -0.1 66
2020-01-28 00:00:00 13.1 16 Oeste 24 Sudoeste 0 1014.3 0.2 66
2020-01-27 23:00:00 12.8 7 Sudoeste 39 Oeste 0 1014.6 1.2 67
2020-01-27 22:00:00 13.9 18 Oeste 33 Oeste 0 1014.2 1 61
2020-01-27 21:00:00 14 14 Sudoeste 45 Oeste 0 1014.1 1.2 58
2020-01-27 20:00:00 12.4 13 Oeste 22 Oeste 0 1013.4 0.7 64
2020-01-27 19:00:00 13.1 15 Sudoeste 30 Oeste 0 1013.2 0.6 58
2020-01-27 18:00:00 14.5 18 Oeste 52 Oeste 0 1012.9 -0.3 51
2020-01-27 17:00:00 15.8 40 Oeste 58 Oeste 0 1012.7 -1.2 48
2020-01-27 16:00:00 16.9 35 Oeste 45 Oeste 0 1012.6 -2.7 47
2020-01-27 15:00:00 17.3 24 Oeste 35 Oeste 0 1013.2 -3.1 46
2020-01-27 14:00:00 16.2 18 Oeste 39 Oeste 0 1013.9 -2.7 48
2020-01-27 13:00:00 15.1 30 Oeste 46 Oeste 0 1015.3 -1.2 51
2020-01-27 12:00:00 13.7 27 Oeste 55 Oeste 0 1016.3 -0.4 56
2020-01-27 11:00:00 12.5 28 Oeste 39 Oeste 0 1016.6 0.2 60
2020-01-27 10:00:00 10.1 17 Oeste 37 Oeste 0 1016.5 0.5 69
2020-01-27 09:00:00 7.7 25 Oeste 35 Oeste 0 1016.7 0.5 78
2020-01-27 08:00:00 6.8 8 Oeste 28 Oeste 0 1016.4 0.1 82
2020-01-27 07:00:00 7.3 14 Sudoeste 22 Sudoeste 0 1016 -0.4 79
2020-01-27 06:00:00 6.5 14 Oeste 18 Oeste 0 1016.2 -0.6 86
2020-01-27 05:00:00 6.2 12 Oeste 17 Noroeste 0 1016.3 -0.7 87
2020-01-27 04:00:00 5.5 12 Oeste 15 Sudoeste 0 1016.4 -1.1 90
2020-01-27 03:00:00 6.1 12 Oeste 17 Noroeste 0 1016.8 -0.6 88
2020-01-27 02:00:00 6.1 8 Oeste 11 Oeste 0 1017 -0.4 89
2020-01-27 01:00:00 6.6 5 Oeste 9 Oeste 0 1017.5 0.6 92
2020-01-27 00:00:00 7 8 Oeste 11 Oeste 0 1017.4 0.8 95
2020-01-26 23:00:00 7.5 9 Oeste 11 Noroeste 0 1017.4 1.7 94
2020-01-26 22:00:00 8 10 Oeste 13 Oeste 0 1016.9 2 95
2020-01-26 21:00:00 8.7 10 Oeste 13 Oeste 0 1016.6 2.7 94
2020-01-26 20:00:00 11.2 0 Calma 9 Norte 0 1015.7 2.2 87
2020-01-26 19:00:00 13.2 7 Nordeste 17 Este 0 1014.9 2 81
2020-01-26 18:00:00 14.8 12 Este 24 Este 0 1013.9 0.9 74
2020-01-26 17:00:00 18.3 9 Oeste 24 Oeste 0 1013.5 0.3 42
2020-01-26 16:00:00 17.8 14 Oeste 24 Oeste 0 1012.9 -0.6 42
2020-01-26 15:00:00 18.7 2 Sudoeste 18 Oeste 0 1013 -0.8 44
2020-01-26 14:00:00 17.9 13 Oeste 28 Oeste 0 1013.2 -0.4 48
2020-01-26 13:00:00 16.9 20 Noroeste 33 Noroeste 0 1013.5 0.2 54
2020-01-26 12:00:00 15.7 23 Oeste 30 Oeste 0 1013.8 0.9 60
2020-01-26 11:00:00 13.9 14 Noroeste 21 Oeste 0 1013.6 1.6 73
2020-01-26 10:00:00 11.3 12 Oeste 15 Oeste 0 1013.3 1.7 86
2020-01-26 09:00:00 8.8 9 Oeste 15 Oeste 0 1012.9 1.8 97
2020-01-26 08:00:00 8.6 9 Noroeste 11 Noroeste 0 1012 0.7 99
2020-01-26 07:00:00 8.6 6 Oeste 9 Oeste 0 1011.6 0.3 100
2020-01-26 06:00:00 8.5 6 Sudoeste 9 Sudoeste 0 1011.1 -0.1 100
2020-01-26 05:00:00 7.9 5 Oeste 9 Noroeste 0 1011.3 0.1 100
2020-01-26 04:00:00 9 5 Sur 8 Sudeste 0 1011.3 -0.3 99
2020-01-26 03:00:00 9.4 0 Calma 8 Noroeste 0 1011.2 -0.2 99
2020-01-26 02:00:00 10.1 5 Noroeste 11 Noroeste 0 1011.2 -0.1 99
2020-01-26 01:00:00 10.5 -- -- -- -- 0 1011.6 0.3 97
2020-01-26 00:00:00 10.5 8 Noroeste 11 Noroeste 0 1011.4 0.1 98
2020-01-25 23:00:00 11.2 10 Noroeste 13 Noroeste 0 1011.3 0.5 98
2020-01-25 22:00:00 12 0 Calma 5 Sudoeste 0 1011.3 0.8 97
2020-01-25 21:00:00 12.2 2 Noroeste 15 Norte 0 1011.3 0.9 96
2020-01-25 20:00:00 12.3 8 Norte 17 Norte 0 1010.8 0.5 97
2020-01-25 19:00:00 12.4 8 Este 13 Este 0 1010.5 0 96
2020-01-25 18:00:00 12.9 10 Este 17 Este 0 1010.4 -0.3 91
2020-01-25 17:00:00 13.2 11 Este 18 Este 0 1010.3 -1.1 91
2020-01-25 16:00:00 13.4 15 Este 21 Este 0 1010.5 -2.2 88
2020-01-25 15:00:00 13.8 13 Nordeste 28 Este 0 1010.7 -2.5 85
2020-01-25 14:00:00 13.7 16 Nordeste 22 Nordeste 0 1011.4 -1.6 84
2020-01-25 13:00:00 13.4 12 Este 21 Este 0 1012.7 -0.2 80
2020-01-25 12:00:00 13.3 8 Nordeste 13 Nordeste 0 1013.2 0.4 80
2020-01-25 11:00:00 12.2 9 Noroeste 17 Norte 0 1013 0.4 89
2020-01-25 10:00:00 11.1 5 Noroeste 9 Oeste 0 1012.9 0.6 97
2020-01-25 09:00:00 10.2 7 Noroeste 9 Noroeste 0 1012.8 0.8 99
2020-01-25 08:00:00 10 -- -- -- -- 0 1012.6 0.3 99
2020-01-25 07:00:00 9.7 4 Oeste 9 Oeste 0 1012.3 -0.5 99
2020-01-25 06:00:00 9.6 8 Oeste 9 Oeste 0 1012 -1.1 99
2020-01-25 05:00:00 10 0 Calma 11 Noroeste 0 1012.3 -0.9 98
2020-01-25 04:00:00 10 5 Noroeste 9 Noroeste 0 1012.8 -1.1 98
2020-01-25 03:00:00 9.6 5 Noroeste 11 Oeste 0 1013.1 -1 98
2020-01-25 02:00:00 10.2 9 Norte 11 Norte 0 1013.2 -1.1 97
2020-01-25 01:00:00 10.2 8 Oeste 11 Oeste 0 1013.9 -0.4 97
2020-01-25 00:00:00 10.3 8 Noroeste 9 Noroeste 0 1014.1 0 96
2020-01-24 23:00:00 10.8 5 Norte 11 Noroeste 0 1014.3 0.2 95
2020-01-24 22:00:00 10.9 8 Noroeste 11 Noroeste 0 1014.3 0.6 96
2020-01-24 21:00:00 11.2 5 Oeste 9 Oeste 0 1014.1 1.1 92
2020-01-24 20:00:00 11.8 5 Sudeste 9 Sudeste 0 1014.1 0.9 89
2020-01-24 19:00:00 12.2 8 Sur 17 Sudeste 0 1013.7 0.3 87
2020-01-24 18:00:00 12.9 12 Sudeste 17 Sudeste 0 1013 -0.6 83
2020-01-24 17:00:00 14.5 0 Calma 5 Sudeste 0 1013.2 -1.2 71
2020-01-24 16:00:00 14.7 0 Calma 9 Oeste 0 1013.4 -1.9 70
2020-01-24 15:00:00 14.1 4 Oeste 9 Oeste 0 1013.6 -- 72
2020-01-24 14:00:00 13.4 4 Oeste 9 Oeste 0 1014.4 -1.4 78
2020-01-24 13:00:00 12.6 0 Calma 9 Norte 0 1015.3 -0.2 88
2020-01-24 12:00:00 -- 6 Oeste 13 Oeste 0 -- -- --
2020-01-24 11:00:00 10.3 10 Noroeste 13 Noroeste 0 1015.8 0.7 100
2020-01-24 10:00:00 8.4 7 Noroeste 13 Noroeste 0 1015.5 0.7 100
2020-01-24 09:00:00 7.7 9 Noroeste 13 Noroeste 0 1015.4 0.6 100
2020-01-24 08:00:00 6.9 10 Noroeste 11 Noroeste 0 1015.1 0.1 100
2020-01-24 07:00:00 7.4 6 Noroeste 15 Noroeste 0 1014.8 -0.3 100
2020-01-24 06:00:00 7.8 6 Noroeste 13 Noroeste 0 1014.8 -0.4 100
2020-01-24 05:00:00 7.8 9 Oeste 9 Noroeste 0 1015 -0.2 100
2020-01-24 04:00:00 9.6 8 Norte 15 Nordeste 0 1015.1 -0.6 100
2020-01-24 03:00:00 9.8 9 Nordeste 13 Nordeste 0 1015.2 -0.4 100
2020-01-24 02:00:00 10.3 10 Nordeste 17 Nordeste 0 1015.2 -0.1 100
2020-01-24 01:00:00 10.8 10 Nordeste 15 Nordeste 0 1015.7 0.5 100
2020-01-24 00:00:00 11.3 6 Nordeste 13 Sur 0 1015.6 0.6 100
2020-01-23 23:00:00 11.4 11 Este 17 Nordeste 0.6 1015.3 0.6 100
2020-01-23 22:00:00 11.7 10 Nordeste 15 Este 0 1015.2 1 100
2020-01-23 21:00:00 11.6 10 Este 17 Nordeste 0 1015 1.2 100
2020-01-23 20:00:00 11.7 13 Nordeste 17 Nordeste 0 1014.7 1.3 100
2020-01-23 19:00:00 11.7 9 Nordeste 17 Este 0 1014.2 1.1 100
2020-01-23 18:00:00 11.9 13 Este 18 Este 0 1013.8 -- 100
2020-01-23 17:00:00 12.8 11 Este 17 Este 0 1013.4 -0.3 100
2020-01-23 16:00:00 13.3 10 Sudeste 17 Sudeste 0 1013.1 -1.2 100
2020-01-23 15:00:00 13.4 13 Sudeste 18 Sudeste 0 -- -- --
2020-01-23 14:00:00 13.5 7 Este 17 Este 0 1013.7 -0.9 100
2020-01-23 13:00:00 12.5 3 Este 9 Nordeste 0 1014.3 0.6 100
2020-01-23 12:00:00 10.9 0 Calma 15 Noroeste 0 1015.1 1.9 100
2020-01-23 11:00:00 9 6 Noroeste 15 Oeste 0 1014.6 1.6 100
2020-01-23 10:00:00 6.5 8 Oeste 13 Oeste 0 1013.7 1.3 100
2020-01-23 09:00:00 4.1 8 Oeste 13 Oeste 0 1013.2 1.4 100
2020-01-23 08:00:00 3.6 8 Sudoeste 11 Noroeste 0 1013 1.5 100
2020-01-23 07:00:00 3.8 8 Oeste 13 Oeste 0 1012.4 0.9 100
2020-01-23 06:00:00 4.3 10 Oeste 17 Noroeste 0 1011.8 0 100
2020-01-23 05:00:00 4.8 9 Noroeste 13 Oeste 0 1011.5 -0.3 100
2020-01-23 04:00:00 4.9 9 Oeste 13 Noroeste 0 1011.5 -0.8 100
2020-01-23 03:00:00 5.4 4 Oeste 9 Sudoeste 0 1011.8 0.1 100
2020-01-23 02:00:00 6.8 7 Sudoeste 17 Noroeste 0 1011.8 0.6 100
2020-01-23 01:00:00 7 5 Norte 13 Oeste 0 1012.3 1.5 100
2020-01-23 00:00:00 6.8 9 Oeste 13 Oeste 0 1011.7 1.2 100
2020-01-22 23:00:00 7 10 Oeste 13 Oeste 0 1011.2 0.9 100
2020-01-22 22:00:00 7.8 7 Oeste 15 Oeste 0 1010.8 0.9 100
2020-01-22 21:00:00 8.5 11 Oeste 24 Oeste 0 1010.5 -0.3 100
2020-01-22 20:00:00 9.1 19 Noroeste 37 Oeste 0 1010.3 -0.5 100
2020-01-22 19:00:00 9.1 32 Oeste 50 Oeste 2.6 1009.9 -1 100
2020-01-22 18:00:00 9.1 13 Nordeste 28 Nordeste 6.4 1010.8 -0.3 100
2020-01-22 17:00:00 9.4 9 Noroeste 26 Sudoeste 0.7 1010.8 -0.8 100
2020-01-22 16:00:00 10.1 21 Sur 33 Sur 0 1010.9 -1.2 100
2020-01-22 15:00:00 10.7 16 Sudoeste 26 Sudoeste 0 1011.1 -1.5 100
2020-01-22 14:00:00 10.6 12 Sur 24 Sur 0 1011.6 -1.1 100
2020-01-22 13:00:00 10.5 11 Oeste 30 Oeste 0 1012.1 -0.6 100
2020-01-22 12:00:00 11.3 7 Sudoeste 13 Sudoeste 0 1012.6 0.5 100
2020-01-22 11:00:00 11.2 7 Noroeste 21 Sudoeste 0 1012.7 0.6 100
2020-01-22 10:00:00 12.1 8 Norte 24 Nordeste 0 1012.7 1.3 100
2020-01-22 09:00:00 11 18 Nordeste 35 Nordeste 0.5 1012.1 0.7 100
2020-01-22 08:00:00 10.3 24 Nordeste 42 Nordeste 0.2 1012.1 0.6 100
2020-01-22 07:00:00 10.5 20 Nordeste 32 Nordeste 0 1011.4 -0.4 100
2020-01-22 06:00:00 10.3 17 Nordeste 30 Nordeste 0 1011.4 -0.6 100
2020-01-22 05:00:00 10.7 19 Nordeste 35 Nordeste 0 1011.5 -0.1 100
2020-01-22 04:00:00 10.6 21 Nordeste 37 Nordeste 0 1011.8 0.2 100
2020-01-22 03:00:00 10.5 15 Nordeste 22 Nordeste 0 1012 0.6 100
2020-01-22 02:00:00 10.4 8 Nordeste 13 Nordeste 0 1011.6 0.6 100
2020-01-22 01:00:00 11.1 7 Este 15 Nordeste 0 1011.6 1 100
2020-01-22 00:00:00 10.9 10 Nordeste 15 Nordeste 0 1011.4 1.6 100
2020-01-21 23:00:00 10.3 6 Nordeste 17 Nordeste 0 1011 2.1 100
2020-01-21 22:00:00 11.2 10 Este 18 Este 0 1010.6 2.6 100
2020-01-21 21:00:00 11.1 10 Nordeste 21 Nordeste 0 1009.8 2.6 100
2020-01-21 20:00:00 10.9 12 Nordeste 30 Nordeste 0 1008.9 2 100
2020-01-21 19:00:00 11.5 20 Nordeste 35 Nordeste 0 1008 1.2 100
2020-01-21 18:00:00 11.7 23 Nordeste 37 Nordeste 0 1007.2 0.9 100
2020-01-21 17:00:00 11.3 27 Nordeste 48 Norte 0 1006.9 0.2 100
2020-01-21 16:00:00 8.2 22 Noroeste 39 Noroeste 0.3 1006.8 -1.1 100
2020-01-21 15:00:00 11.1 13 Noroeste 35 Norte 1 1006.3 -2 100
2020-01-21 14:00:00 11.3 13 Noroeste 35 Sudeste 2.3 1006.7 -2.1 100
2020-01-21 13:00:00 11.1 21 Sur 35 Sudeste 11.3 1007.9 0.5 100
2020-01-21 12:00:00 10.6 8 Este -- -- -- 1008.3 0.4 100
2020-01-21 11:00:00 10.5 17 Nordeste 71 Este 6.2 1008.8 0.3 100
2020-01-21 10:00:00 10.6 33 Nordeste 52 Norte 2.7 1007.4 -0.4 100
2020-01-21 09:00:00 9.6 21 Norte 33 Norte 1.4 1007.9 0.2 100
2020-01-21 08:00:00 7.7 26 Nordeste 61 Norte 2.2 1008.5 -0.2 100
2020-01-21 07:00:00 7.8 33 Norte 59 Norte 3 1007.8 -1.7 100
2020-01-21 06:00:00 8.4 34 Norte 59 Norte 1 1007.7 -3.2 95
2020-01-21 05:00:00 8.1 39 Norte 63 Nordeste 1.4 1008.7 -3 93
2020-01-21 04:00:00 8.4 29 Norte 59 Norte 0.7 1009.5 -3.7 93
2020-01-21 03:00:00 8.5 33 Norte 52 Norte 0.1 1010.9 -2.2 91
2020-01-21 02:00:00 8.3 24 Norte 45 Norte 0 1011.7 -0.7 98
2020-01-21 01:00:00 7.3 15 Oeste 45 Norte 5.7 1013.2 0.9 100
2020-01-21 00:00:00 7.3 29 Norte 63 Nordeste 3.2 1013.1 0.8 98
2020-01-20 23:00:00 7.7 39 Norte 63 Norte 0.4 1012.4 -0.5 95
2020-01-20 22:00:00 7.3 41 Norte 67 Nordeste 0.7 1012.3 -0.4 95
2020-01-20 21:00:00 7.2 45 Nordeste 68 Norte 2.8 1012.3 0.7 98
2020-01-20 20:00:00 6.8 33 Norte 74 Norte 5.4 1012.9 1.7 99
2020-01-20 19:00:00 7.4 44 Nordeste 78 Norte 2.3 1012.7 1.4 89
2020-01-20 18:00:00 6.9 51 Nordeste 78 Nordeste 3.1 1011.6 -0.1 92
2020-01-20 17:00:00 8.3 45 Nordeste 87 Nordeste -- 1011.2 -1.5 76
2020-01-20 16:00:00 8.7 56 Nordeste 96 Norte 1.6 1011.3 -1.7 72
2020-01-20 15:00:00 8.7 46 Nordeste 82 Norte 0.4 1011.7 -2.1 73
2020-01-20 14:00:00 8.4 48 Norte 82 Nordeste 0.4 1012.7 -0.8 75
2020-01-20 13:00:00 7.7 50 Nordeste 78 Norte 0.6 1013 0 80
2020-01-20 12:00:00 7.2 45 Nordeste 80 Nordeste 0.3 1013.8 0.9 82
2020-01-20 11:00:00 6.8 43 Nordeste 71 Nordeste 0 1013.5 0.6 78
2020-01-20 10:00:00 6.8 44 Nordeste 78 Nordeste 0 1013 0.7 78
2020-01-20 09:00:00 6.2 41 Nordeste 67 Nordeste 0 1012.9 0 80
2020-01-20 08:00:00 5.9 36 Nordeste 61 Norte 0 1012.9 -0.3 79
2020-01-20 07:00:00 5.2 28 Norte 52 Nordeste 1.3 1012.3 -1.4 84
2020-01-20 06:00:00 4.9 26 Norte 50 Nordeste 1.3 1012.9 -0.9 84
2020-01-20 05:00:00 5.6 28 Norte 48 Norte 0.2 1013.2 -1 78
2020-01-20 04:00:00 5.4 30 Norte 59 Nordeste 1 1013.7 -0.4 81
2020-01-20 03:00:00 6 33 Nordeste 58 Nordeste 0.6 1013.8 0 79
2020-01-20 02:00:00 6.5 27 Nordeste 72 Nordeste 0.4 1014.2 0.6 78
2020-01-20 01:00:00 7.7 40 Nordeste 78 Nordeste 0 1014.1 0.6 65
2020-01-20 00:00:00 8.4 35 Nordeste 65 Nordeste 0.1 1013.8 0.1 60
2020-01-19 23:00:00 7.8 34 Nordeste 59 Nordeste 0.6 1013.6 0 75
2020-01-19 22:00:00 8 16 Norte 55 Nordeste 0.5 1013.5 0.4 84
2020-01-19 21:00:00 7.5 36 Nordeste 65 Nordeste 0.9 1013.7 0.9 83
2020-01-19 20:00:00 8.1 34 Nordeste 59 Nordeste 0.4 1013.6 0.9 75
2020-01-19 19:00:00 7.5 28 Nordeste 48 Nordeste 1 1013.1 0.9 90
2020-01-19 18:00:00 7 33 Norte 55 Norte 0.5 1012.8 1.6 86
2020-01-19 17:00:00 6.3 30 Norte 55 Norte 2.2 1012.7 2.1 94
2020-01-19 16:00:00 6.1 18 Norte 46 Norte 2.2 1012.2 1.5 94
2020-01-19 15:00:00 6.3 26 Norte 52 Norte 1 1011.2 0.7 91
2020-01-19 14:00:00 7.3 27 Norte 48 Norte 1 1010.6 0.2 87
2020-01-19 13:00:00 8.4 24 Norte 37 Norte 1 1010.7 0.8 86
2020-01-19 12:00:00 7.4 19 Noroeste 33 Noroeste 2.2 1010.5 1.7 95
2020-01-19 11:00:00 7.3 23 Noroeste 35 Noroeste 2.5 1010.4 2.1 93
2020-01-19 10:00:00 8.3 20 Norte 30 Norte 2.2 1009.9 1.2 93
2020-01-19 09:00:00 8.5 10 Norte 17 Noroeste 0.4 1008.8 0.3 92
2020-01-19 08:00:00 8.8 13 Noroeste 21 Noroeste 0.5 1008.3 -0.2 90
2020-01-19 07:00:00 10.4 10 Norte 17 Norte 0.9 1008.7 -0.6 81
2020-01-19 06:00:00 10.7 7 Sudoeste 13 Sudeste 0 1008.5 -1.1 84
2020-01-19 05:00:00 10.9 9 Sudeste 17 Nordeste 0 1008.5 -1.3 80
2020-01-19 04:00:00 10.2 6 Sur 22 Noroeste 0 1009.3 -1.5 82
2020-01-19 03:00:00 11.1 14 Noroeste 32 Sudoeste 0 1009.6 -2.2 83
2020-01-19 02:00:00 12.6 17 Sudoeste 32 Sudoeste 0 1009.8 -2.7 77
2020-01-19 01:00:00 13.7 13 Sudoeste 26 Oeste 0 1010.8 -1.9 72
2020-01-19 00:00:00 13.6 13 Sudoeste 24 Sudoeste 0 1011.8 -1.2 72
2020-01-18 23:00:00 13.5 9 Sudoeste 17 Oeste 0 1012.5 -1.4 72
2020-01-18 22:00:00 12.8 11 Oeste 21 Sudoeste 0 1012.7 -1.7 74
2020-01-18 21:00:00 13.8 15 Sudoeste 28 Oeste 0 1013 -1.8 67
2020-01-18 20:00:00 13.7 9 Sudoeste 17 Sudoeste 0 1013.9 -1.8 64
2020-01-18 19:00:00 14.1 10 Oeste 15 Oeste 0 1014.4 -2.1 62
2020-01-18 18:00:00 15.7 14 Oeste 35 Oeste 0 1014.8 -2.7 55
2020-01-18 17:00:00 16.9 25 Oeste 45 Oeste 0 1015.7 -3.1 50
2020-01-18 16:00:00 16.8 24 Oeste 42 Oeste 0 1016.5 -4.3 48
2020-01-18 15:00:00 17.5 24 Oeste 42 Oeste 0 1017.5 -5.3 45
2020-01-18 14:00:00 16.3 19 Oeste 32 Oeste 0 1018.8 -4.8 49
2020-01-18 13:00:00 14.7 14 Sudoeste 21 Sudoeste 0 1020.8 -2.6 57
2020-01-18 12:00:00 11.4 0 Calma 9 Oeste 0 1022.8 -0.6 63
2020-01-18 11:00:00 9.3 6 Oeste 18 Noroeste 0 1023.6 0 67
2020-01-18 10:00:00 7.6 0 Calma 11 Noroeste 0 1023.4 0.2 77
2020-01-18 09:00:00 6.9 3 Noroeste 11 Noroeste 0 1023.4 0.7 78
2020-01-18 08:00:00 6.6 12 Oeste 18 Oeste 0 1023.6 0.4 79
2020-01-18 07:00:00 5.7 8 Oeste 17 Norte 0 1023.2 -0.3 81
2020-01-18 06:00:00 4.9 14 Noroeste 17 Noroeste 0 1022.7 -1.3 85
2020-01-18 05:00:00 5.6 3 Norte 15 Oeste 0 1023.2 -1.4 81
2020-01-18 04:00:00 7.1 6 Norte 13 Oeste 0 1023.5 -0.9 75
2020-01-18 03:00:00 7.6 2 Oeste 8 Noroeste 0 1024 -0.5 72
2020-01-18 02:00:00 7.7 6 Noroeste 11 Noroeste 0 1024.6 0.7 72
2020-01-18 01:00:00 8 7 Oeste 15 Norte 0 1024.4 1.2 74
2020-01-18 00:00:00 8.1 12 Oeste 17 Oeste 0 1024.5 1.5 73
2020-01-17 23:00:00 8.6 7 Noroeste 15 Oeste 0 1023.9 1.5 70
2020-01-17 22:00:00 9.5 10 Noroeste 15 Oeste 0 1023.2 1.4 66
2020-01-17 21:00:00 10.2 12 Oeste 22 Oeste 0 1023 2.1 62
2020-01-17 20:00:00 12.1 16 Oeste 22 Oeste 0 1022.4 1.7 55
2020-01-17 19:00:00 14.1 14 Sudoeste 24 Oeste 0 1021.8 1.4 49
2020-01-17 18:00:00 15.8 17 Oeste 22 Oeste 0 1020.9 0.3 47
2020-01-17 17:00:00 17.2 15 Oeste 35 Oeste 0 1020.7 -0.2 44
2020-01-17 16:00:00 17.7 27 Oeste 46 Oeste 0 1020.4 -1.4 39
2020-01-17 15:00:00 18.3 30 Oeste 46 Oeste 0 1020.6 -1.4 37
2020-01-17 14:00:00 18 29 Oeste 45 Oeste 0 1020.9 -1.2 38
2020-01-17 13:00:00 17.2 26 Oeste 48 Oeste 0 1021.8 0.2 40
2020-01-17 12:00:00 17 32 Oeste 48 Oeste 0 1022 0.8 41
2020-01-17 11:00:00 15.7 19 Oeste 33 Oeste 0 1022.1 1.5 46
2020-01-17 10:00:00 13.7 22 Oeste 32 Oeste 0 1021.6 1.6 48
2020-01-17 09:00:00 11.6 22 Oeste 26 Oeste 0 1021.2 2.1 51
2020-01-17 08:00:00 8.6 9 Oeste 26 Oeste 0 1020.6 1.8 57
2020-01-17 07:00:00 10.5 21 Sudoeste 35 Oeste 0 1020 0.3 49
2020-01-17 06:00:00 12.2 30 Oeste 41 Oeste 0 1019.1 -0.5 44
2020-01-17 05:00:00 11.3 19 Sudoeste 30 Oeste 0 1018.8 -1.2 49
2020-01-17 04:00:00 8.9 25 Oeste 33 Oeste 0 1019.7 -0.5 67
2020-01-17 03:00:00 6.1 19 Oeste 24 Oeste 0 1019.6 -0.8 92
2020-01-17 02:00:00 4.9 9 Noroeste 13 Noroeste 0 1020 -0.1 95
2020-01-17 01:00:00 5 8 Oeste 11 Oeste 0 1020.2 0.2 94
2020-01-17 00:00:00 5.8 7 Noroeste 11 Noroeste 0 1020.4 0.6 93
2020-01-16 23:00:00 5.8 10 Oeste 13 Oeste 0 1020.1 0.4 93
2020-01-16 22:00:00 7 6 Oeste 11 Oeste 0 1020 0.6 91
2020-01-16 21:00:00 8.1 9 Noroeste 13 Noroeste 0 1019.8 1.1 90
2020-01-16 20:00:00 9.4 -- -- -- -- 0 1019.7 1.2 84
2020-01-16 19:00:00 11.7 6 Este 13 Sudeste 0 1019.4 1.1 84
2020-01-16 18:00:00 13.2 10 Sudeste 18 Sudeste 0 1018.7 0.1 70
2020-01-16 17:00:00 16 15 Sudeste 21 Sudeste 0 1018.5 -0.7 56
2020-01-16 16:00:00 18 11 Sudeste 17 Sudeste 0 1018.3 -2 49
2020-01-16 15:00:00 17.9 10 Sudeste 18 Sudeste 0 1018.6 -2.7 49
2020-01-16 14:00:00 17.8 9 Sudeste 17 Sudeste 0 1019.2 -2.5 47
2020-01-16 13:00:00 17.4 0 Calma 9 Sudeste 0 1020.3 -1.2 49
2020-01-16 12:00:00 15.4 6 Sudoeste 11 Sudoeste 0 1021.3 -0.2 58
2020-01-16 11:00:00 11.6 7 Noroeste 13 Noroeste 0 1021.7 0.6 73
2020-01-16 10:00:00 7.7 10 Noroeste 13 Noroeste 0 1021.5 1 85
2020-01-16 09:00:00 4.2 10 Oeste 13 Noroeste 0 1021.5 1.4 95
2020-01-16 08:00:00 3.8 8 Oeste 13 Noroeste 0 1021.1 1.1 94
2020-01-16 07:00:00 4 9 Noroeste 13 Oeste 0 1020.5 0.6 95
2020-01-16 06:00:00 4.1 8 Noroeste 11 Oeste 0 1020.1 0.5 94
2020-01-16 05:00:00 3.8 8 Sudoeste 9 Sudoeste 0 1020 0.6 93
2020-01-16 04:00:00 4.3 8 Oeste -- -- 0 1019.9 0.5 93
2020-01-16 03:00:00 4.9 0 Calma 8 Oeste 0 1019.6 0 89
2020-01-16 02:00:00 5.3 3 Noroeste 15 Oeste 0 1019.4 0 91
2020-01-16 01:00:00 5.5 7 Oeste 9 Noroeste 0 1019.4 0.4 89
2020-01-16 00:00:00 7.2 0 Calma 8 Sur 0 1019.6 0.5 82
2020-01-15 23:00:00 7.6 6 Sudeste 11 Este 0 1019.4 0.4 83
2020-01-15 22:00:00 6.7 8 Oeste 11 Oeste 0 1019 0.7 85
2020-01-15 21:00:00 7.9 0 Calma 8 Oeste 0 1019.1 1.7 82
2020-01-15 20:00:00 10.3 0 Calma 13 Este 0 1019 2.5 72
2020-01-15 19:00:00 12.2 6 Este 13 Norte 0 1018.3 2.2 69
2020-01-15 18:00:00 14.2 7 Nordeste 21 Este 0 1017.4 1.3 66
2020-01-15 17:00:00 17.1 14 Nordeste 24 Nordeste 0 1016.5 -0.5 51
2020-01-15 16:00:00 19.6 16 Oeste 28 Oeste 0 1016.1 -1.6 36
2020-01-15 15:00:00 18.6 17 Sudoeste 28 Sudoeste 0 1016.1 -2.4 38
2020-01-15 14:00:00 17.7 9 Sudoeste 17 Sudoeste 0 1017 -1.5 44
2020-01-15 13:00:00 15.9 12 Sudoeste 18 Sudoeste 0 1017.7 -0.2 50
2020-01-15 12:00:00 13.5 5 Sur 9 Sur 0 1018.5 1.2 55
2020-01-15 11:00:00 9.3 7 Noroeste 11 Noroeste 0 1018.5 1.9 65
2020-01-15 10:00:00 5 4 Noroeste 11 Noroeste 0 1017.9 1.7 78
2020-01-15 09:00:00 2.5 4 Norte 15 Oeste 0 1017.3 1.8 83
2020-01-15 08:00:00 0.8 10 Noroeste 15 Oeste 0 1016.6 1.2 90
2020-01-15 07:00:00 1.5 8 Noroeste 21 Noroeste 0 1016.2 0.9 86
2020-01-15 06:00:00 1.2 8 Noroeste 17 Noroeste 0 1015.5 0.2 87
2020-01-15 05:00:00 1.5 5 Oeste 11 Oeste 0 1015.4 0.2 86
2020-01-15 04:00:00 0.8 10 Noroeste 13 Noroeste 0 1015.3 -0.1 88
2020-01-15 03:00:00 1.4 9 Noroeste 15 Noroeste 0 1015.3 -0.2 86
2020-01-15 02:00:00 1.3 8 Noroeste 11 Noroeste 0 1015.2 -0.1 87
2020-01-15 01:00:00 2.4 6 Oeste 11 Norte 0 1015.4 0 83
2020-01-15 00:00:00 3.1 6 Oeste 9 Oeste 0 1015.5 0.3 83
2020-01-14 23:00:00 4.1 7 Oeste 13 Oeste 0 1015.3 0.5 81
2020-01-14 22:00:00 4.4 8 Oeste 13 Noroeste 0 1015.4 1.2 84
2020-01-14 21:00:00 5.6 9 Oeste 13 Noroeste 0 1015.2 1.4 80
2020-01-14 20:00:00 8.7 6 Norte 15 Nordeste 0 1014.8 1.2 69
2020-01-14 19:00:00 10 10 Nordeste 18 Este 0 1014.2 1.1 65
2020-01-14 18:00:00 11.3 10 Este 22 Sudeste 0 1013.8 0.6 58
2020-01-14 17:00:00 14.2 14 Este 18 Este 0 1013.6 -0.1 37
2020-01-14 16:00:00 15.7 15 Este 21 Este 0 1013.1 -1.6 33
2020-01-14 15:00:00 16.1 2 Norte 9 Norte 0 1013.2 -2.4 26
2020-01-14 14:00:00 15.8 3 Norte 13 Norte 0 1013.7 -2.4 26
2020-01-14 13:00:00 14.5 2 Sur 9 Noroeste 0 1014.7 -1.1 31
2020-01-14 12:00:00 11.7 5 Noroeste 11 Noroeste 0 1015.6 0.4 40
2020-01-14 11:00:00 9.1 7 Oeste 11 Oeste 0 1016.1 1.2 47
2020-01-14 10:00:00 3.8 4 Oeste 11 Oeste 0 1015.8 1.4 73
2020-01-14 09:00:00 -0.1 10 Oeste 13 Oeste 0 1015.2 1.3 83
2020-01-14 08:00:00 -1 9 Noroeste 13 Noroeste 0 1014.9 1.2 87
2020-01-14 07:00:00 -1 5 Oeste 11 Noroeste 0 1014.4 0.8 88
2020-01-14 06:00:00 -0.3 9 Noroeste 11 Noroeste 0 1013.9 0.2 87
2020-01-14 05:00:00 0 7 Oeste 13 Noroeste 0 1013.7 -0.1 90
2020-01-14 04:00:00 0.8 6 Norte 11 Noroeste 0 1013.6 -1 91
2020-01-14 03:00:00 2.9 3 Este 11 Oeste 0 1013.7 -0.9 87
2020-01-14 02:00:00 2.3 3 Noroeste 17 Oeste 0 1013.8 -0.9 94
2020-01-14 01:00:00 2.7 9 Oeste 13 Oeste 0 1014.6 -0.3 94
2020-01-14 00:00:00 3.4 9 Oeste 11 Oeste 0 1014.6 -0.4 90
2020-01-13 23:00:00 4.4 5 Noroeste 11 Oeste 0 1014.7 -0.2 90
2020-01-13 22:00:00 4.7 5 Oeste 11 Noroeste 0 1014.9 0.3 90
2020-01-13 21:00:00 5.5 9 Oeste 11 Oeste 0 1015 0.6 87
2020-01-13 20:00:00 9.6 3 Nordeste 13 Norte 0 1014.9 0.6 72
2020-01-13 19:00:00 11 6 Nordeste 17 Norte 0 1014.6 0.5 70
2020-01-13 18:00:00 12.3 7 Nordeste 15 Nordeste 0 1014.4 0 66
2020-01-13 17:00:00 14.4 9 Nordeste 15 Nordeste 0 1014.3 -1.3 48
2020-01-13 16:00:00 16.9 12 Sudoeste 18 Nordeste 0 1014.1 -2.8 28
2020-01-13 15:00:00 16.7 9 Nordeste 15 Este 0 1014.4 -4.1 34
2020-01-13 14:00:00 16.2 4 Norte 15 Sur 0 1015.6 -3.6 30
2020-01-13 13:00:00 14.4 8 Sur 11 Sur 0 1016.9 -2.3 38
2020-01-13 12:00:00 12.2 0 Calma 8 Nordeste 0 1018.5 -0.6 43
2020-01-13 11:00:00 7.7 0 Calma 5 Sudoeste 0 1019.2 0.1 61
2020-01-13 10:00:00 2.9 0 Calma 9 Oeste 0 1019.2 0.2 80
2020-01-13 09:00:00 -0.9 8 Oeste 9 Oeste 0 1019.1 -0.2 88
2020-01-13 08:00:00 -1.6 2 Oeste 8 Oeste 0 1019.1 -0.6 89
2020-01-13 07:00:00 -1.5 6 Oeste 11 Oeste 0 1019 -1.5 87
2020-01-13 06:00:00 -0.8 8 Oeste 13 Noroeste 0 1019.3 -1.5 89
2020-01-13 05:00:00 -0.5 10 Oeste 11 Oeste 0 1019.7 -1.6 88
2020-01-13 04:00:00 0 10 Noroeste 13 Sudoeste 0 1020.5 -1.6 87
2020-01-13 03:00:00 0.4 11 Oeste 13 Oeste 0 1020.8 -2.1 88
2020-01-13 02:00:00 0.8 8 Oeste 13 Oeste 0 1021.3 -1.8 88
2020-01-13 01:00:00 2 9 Oeste 13 Oeste 0 1022.1 -1.1 87
2020-01-13 00:00:00 2.2 8 Oeste 11 Noroeste 0 1022.9 -0.2 92
2020-01-12 23:00:00 2.2 10 Oeste 11 Oeste 0 1023.1 0.2 92
2020-01-12 22:00:00 3 8 Oeste 9 Oeste 0 1023.2 0.9 92
2020-01-12 21:00:00 4.1 7 Noroeste 13 Noroeste 0 1023.1 1.4 89
2020-01-12 20:00:00 5.6 4 Oeste 8 Oeste 0 1022.9 1.4 85
2020-01-12 19:00:00 9.1 0 Calma 9 Este 0 1022.3 1 74
2020-01-12 18:00:00 11.3 8 Este 15 Sudeste 0 1021.7 0.4 60
2020-01-12 17:00:00 13.6 9 Sudeste 15 Este 0 1021.5 -0.4 56
2020-01-12 16:00:00 15 5 Sudeste 18 Este 0 1021.3 -1.4 49
2020-01-12 15:00:00 14.8 5 Nordeste 13 Sudeste 0 1021.3 -2.3 45
2020-01-12 14:00:00 14.2 2 Este 13 Este 0 1021.9 -1.9 49
2020-01-12 13:00:00 13.5 3 Este 8 Este 0 1022.7 -0.4 51
2020-01-12 12:00:00 11 4 Noroeste 9 Noroeste 0 1023.6 0.9 50
2020-01-12 11:00:00 8 5 Noroeste 11 Oeste 0 1023.8 1.4 57
2020-01-12 10:00:00 4.4 5 Noroeste 11 Oeste 0 1023.1 0.8 73
2020-01-12 09:00:00 0.4 8 Oeste 13 Oeste 0 1022.7 0.7 86
2020-01-12 08:00:00 -0.5 12 Oeste 15 Oeste 0 1022.4 0.2 90
2020-01-12 07:00:00 0.6 10 Oeste 13 Noroeste 0 1022.3 -0.3 84
2020-01-12 06:00:00 0 8 Oeste -- -- 0 1022 -0.8 91
2020-01-12 05:00:00 0.6 8 Noroeste 11 Noroeste 0 1022.2 -0.6 89
2020-01-12 04:00:00 1.3 9 Noroeste 13 Oeste 0 1022.6 -0.4 86
2020-01-12 03:00:00 1.8 10 Oeste 15 Oeste 0 1022.8 -0.4 87
2020-01-12 02:00:00 2.2 9 Noroeste 11 Oeste 0 1022.8 -0.3 90
2020-01-12 01:00:00 2.3 7 Oeste 11 Oeste 0 1023 0.2 90
2020-01-12 00:00:00 3.6 8 Oeste 11 Noroeste 0 1023.2 0.2 87
2020-01-11 23:00:00 4.2 8 Noroeste 11 Noroeste 0 1023.1 0.3 87
2020-01-11 22:00:00 5.7 8 Noroeste 13 Noroeste 0 1022.8 0.4 84
2020-01-11 21:00:00 6.5 10 Noroeste 15 Noroeste 0 1023 1 84
2020-01-11 20:00:00 9.2 0 Calma 8 Este 0 1022.8 1 77
2020-01-11 19:00:00 10 3 Este 11 Sudeste 0 1022.4 0.5 71
2020-01-11 18:00:00 11.7 10 Sudeste 18 Sudeste 0 1022 0 61
2020-01-11 17:00:00 13.9 13 Sudeste 22 Sudeste 0 1021.8 -0.7 45
2020-01-11 16:00:00 15 16 Sudeste 24 Sudeste 0 1021.9 -1.6 44
2020-01-11 15:00:00 16.4 9 Sur 17 Sur 0 1022 -2.3 36
2020-01-11 14:00:00 16.3 7 Sur 13 Sur 0 1022.5 -2.3 33
2020-01-11 13:00:00 15.2 5 Sudoeste 11 Sudoeste 0 1023.5 -0.8 38
2020-01-11 12:00:00 13.5 5 Sudoeste 13 Noroeste 0 1024.3 0.7 48
2020-01-11 11:00:00 10.6 8 Oeste 13 Oeste 0 1024.8 1.4 57
2020-01-11 10:00:00 6.7 6 Oeste 9 Oeste 0 1024.3 1.5 74
2020-01-11 09:00:00 4.1 6 Oeste 11 Oeste 0 1023.6 1.4 80
2020-01-11 08:00:00 4 5 Oeste 9 Oeste 0 1023.4 1.5 79
2020-01-11 07:00:00 5 4 Sudoeste 18 Noroeste 0 1022.8 0.8 73
2020-01-11 06:00:00 5.9 9 Oeste 15 Oeste 0 1022.2 0.5 72
2020-01-11 05:00:00 5.5 12 Oeste 28 Noroeste 0 1021.9 0.8 74
2020-01-11 04:00:00 5.7 14 Noroeste 28 Noroeste 0 1022 0.8 73
2020-01-11 03:00:00 3.4 9 Oeste 13 Noroeste 0 1021.7 -0.2 86
2020-01-11 02:00:00 3.3 9 Noroeste 11 Noroeste 0 1021.1 -0.5 90
2020-01-11 01:00:00 3.9 9 Noroeste 13 Noroeste 0 1021.2 -0.3 89
2020-01-11 00:00:00 4.6 12 Noroeste 13 Noroeste 0 1021.9 0.7 89
2020-01-10 23:00:00 5.8 10 Noroeste 13 Noroeste 0 1021.6 0.7 86
2020-01-10 22:00:00 8 9 Noroeste 13 Oeste 0 1021.5 1.3 80
2020-01-10 21:00:00 8.5 8 Oeste 13 Norte 0 1021.2 2.1 77
2020-01-10 20:00:00 10.4 10 Noroeste 24 Nordeste 0 1020.9 2.1 66
2020-01-10 19:00:00 11.4 15 Nordeste 35 Nordeste 0 1020.2 1.8 63
2020-01-10 18:00:00 11.9 28 Nordeste 41 Nordeste 0 1019.1 1.5 64
2020-01-10 17:00:00 12.5 23 Nordeste 41 Nordeste 0 1018.8 1.4 59
2020-01-10 16:00:00 13.8 25 Nordeste 42 Este 0 1018.4 0.5 55
2020-01-10 15:00:00 15.4 14 Este 26 Este 0 1017.6 -0.7 43
2020-01-10 14:00:00 15.3 16 Este 32 Este 0 1017.4 -0.8 45
2020-01-10 13:00:00 15.3 21 Este 32 Este 0 1017.9 0 43
2020-01-10 12:00:00 15.2 17 Noroeste 30 Noroeste 0 1018.3 0.8 40
2020-01-10 11:00:00 12.1 10 Noroeste 24 Norte 0 1018.2 1.1 65
2020-01-10 10:00:00 7.9 14 Oeste 18 Oeste 0 1017.9 1.6 90
2020-01-10 09:00:00 6.3 13 Oeste 17 Oeste 0 1017.5 1.8 93
2020-01-10 08:00:00 6.9 10 Noroeste 17 Oeste 0 1017.1 1.5 88
2020-01-10 07:00:00 6.5 8 Norte 13 Nordeste 0 1016.3 0.3 92
2020-01-10 06:00:00 5.9 8 Oeste 11 Oeste 0 1015.7 -0.5 95
2020-01-10 05:00:00 5.7 10 Noroeste 15 Noroeste 0 1015.6 -0.6 96
2020-01-10 04:00:00 4.3 7 Oeste 11 Oeste 0 1016 -0.2 98
2020-01-10 03:00:00 4.7 10 Noroeste 13 Noroeste 0 1016.2 -0.5 98
2020-01-10 02:00:00 5.1 10 Oeste 11 Oeste 0 1016.2 -1.3 97
2020-01-10 01:00:00 5.8 8 Sudoeste 13 Oeste 0 1016.2 -1.1 96
2020-01-10 00:00:00 6.7 7 Oeste 11 Noroeste 0 1016.7 -0.7 96
2020-01-09 23:00:00 7.2 10 Noroeste 21 Noroeste 0 1017.5 -1 94
2020-01-09 22:00:00 6.7 12 Noroeste 15 Noroeste 0 1017.3 -1 96
2020-01-09 21:00:00 7.7 4 Sudoeste 11 Noroeste 0 1017.4 -0.1 94
2020-01-09 20:00:00 8.2 3 Noroeste 8 Oeste 0 1018.5 0.9 91
2020-01-09 19:00:00 10.6 0 Calma 13 Sudeste 0 1018.3 0.5 86
2020-01-09 18:00:00 11.8 12 Sudeste 18 Sudeste 0 1017.5 -1.1 75
2020-01-09 17:00:00 13.6 16 Sudeste 21 Sudeste 0 1017.6 -1.6 67
2020-01-09 16:00:00 15.2 9 Sudeste 18 Sur 0 1017.8 -2.3 57
2020-01-09 15:00:00 15.2 6 Sudeste 18 Sudeste 0 1018.6 -2.6 58
2020-01-09 14:00:00 15.1 10 Sur 18 Sudeste 0 1019.2 -2.4 61
2020-01-09 13:00:00 14.6 8 Sur 13 Sur 0 1020.1 -1.5 63
2020-01-09 12:00:00 12.6 4 Sudoeste 11 Noroeste 0 1021.2 -0.3 69
2020-01-09 11:00:00 9.7 9 Noroeste 18 Noroeste 0 1021.6 0.2 78
2020-01-09 10:00:00 6.5 8 Oeste 13 Oeste 0 1021.6 0.1 93
2020-01-09 09:00:00 2.8 9 Oeste 13 Oeste 0 1021.5 -0.1 98
2020-01-09 08:00:00 2.2 9 Oeste 15 Oeste 0 1021.4 -0.7 97
2020-01-09 07:00:00 3.7 10 Oeste 13 Oeste 0 1021.5 -0.9 97
2020-01-09 06:00:00 3.7 7 Oeste 11 Oeste 0 1021.6 -1.2 98
2020-01-09 05:00:00 3.1 7 Oeste 13 Noroeste 0 1022.1 -0.7 98
2020-01-09 04:00:00 2.8 9 Oeste 13 Oeste 0 1022.4 -0.8 97
2020-01-09 03:00:00 3.4 9 Oeste 11 Oeste 0 1022.8 -0.7 98
2020-01-09 02:00:00 3.2 8 Oeste 13 Oeste 0 1022.8 -0.9 98
2020-01-09 01:00:00 3.3 8 Oeste 11 Oeste 0 1023.2 -0.4 97
2020-01-09 00:00:00 3.8 8 Oeste 9 Oeste 0 1023.5 -0.1 98
2020-01-08 23:00:00 4.2 5 Oeste -- -- 0 1023.7 0.2 96
2020-01-08 22:00:00 4.8 6 Noroeste 11 Oeste 0 1023.6 0.2 97
2020-01-08 21:00:00 6 7 Sudoeste 9 Oeste 0 1023.6 0.5 97
2020-01-08 20:00:00 7.3 0 Calma -- -- 0 1023.5 0.5 96
2020-01-08 19:00:00 9 4 Oeste 8 Oeste 0 1023.4 0.6 92
2020-01-08 18:00:00 12.1 7 Sudoeste 9 Sur 0 1023.1 0.2 80
2020-01-08 17:00:00 15.1 0 Calma 5 Oeste 0 1023 -0.4 67
2020-01-08 16:00:00 15.4 4 Sudoeste 11 Sudeste 0 1022.8 -1.2 68
2020-01-08 15:00:00 13.7 4 Este 18 Nordeste 0 1022.9 -1.5 76
2020-01-08 14:00:00 12.8 11 Nordeste 18 Nordeste 0 1023.4 -1.1 83
2020-01-08 13:00:00 11 3 Oeste 9 Oeste 0 1024 0.3 88
2020-01-08 12:00:00 9 7 Oeste 11 Oeste 0 1024.4 1.8 89
2020-01-08 11:00:00 7.1 9 Noroeste 13 Noroeste 0 1024.5 2.6 88
2020-01-08 10:00:00 4.4 8 Oeste 11 Oeste 0 1023.7 2.5 93
2020-01-08 09:00:00 2 7 Oeste 13 Noroeste 0 1022.6 2.2 94
2020-01-08 08:00:00 1.9 7 Noroeste 11 Oeste 0 1021.9 1.5 92
2020-01-08 07:00:00 2.7 5 Oeste 13 Noroeste 0 1021.2 0.8 91
2020-01-08 06:00:00 2.3 5 Oeste 11 Oeste 0 1020.4 -0.1 95
2020-01-08 05:00:00 2.4 9 Noroeste 11 Noroeste 0 1020.4 -0.5 95
2020-01-08 04:00:00 2.3 8 Oeste 13 Oeste 0 1020.4 -1.1 96
2020-01-08 03:00:00 2.5 8 Noroeste 11 Noroeste 0 1020.5 -1.3 96
2020-01-08 02:00:00 2.5 9 Oeste 13 Noroeste 0 1020.9 -1 95
2020-01-08 01:00:00 3.2 -- -- -- -- 0 1021.5 -0.7 97
2020-01-08 00:00:00 4.1 6 Oeste 13 Noroeste 0 1021.8 -0.5 95
2020-01-07 23:00:00 4.8 12 Noroeste 17 Noroeste 0 1021.9 -0.4 97
2020-01-07 22:00:00 5 7 Noroeste 9 Oeste 0 1022.2 0.3 96
2020-01-07 21:00:00 5.9 7 Noroeste 9 Noroeste 0 1022.3 0.9 95
2020-01-07 20:00:00 7 8 Noroeste 9 Noroeste 0 1022.3 1.2 93
2020-01-07 19:00:00 10 0 Calma -- -- 0 1021.9 0.9 89
2020-01-07 18:00:00 11.4 8 Sudeste 15 Este 0 1021.4 0.4 82
2020-01-07 17:00:00 13.5 11 Sudeste 18 Sudeste 0 1021.1 -0.7 67
2020-01-07 16:00:00 15.1 12 Sudeste 18 Sudeste 0 1021 -2.3 57
2020-01-07 15:00:00 16.6 7 Sudeste 13 Oeste 0 1021 -3.3 44
2020-01-07 14:00:00 15.2 0 Calma 5 Oeste 0 1021.8 -3 47
2020-01-07 13:00:00 14.3 3 Norte 8 Norte 0 1023.3 -1.4 50
2020-01-07 12:00:00 11.7 2 Norte 9 Noroeste 0 1024.3 0 61
2020-01-07 11:00:00 8.5 5 Noroeste 11 Noroeste 0 1024.8 1.1 76
2020-01-07 10:00:00 4.7 5 Oeste 9 Oeste 0 1024.7 1.2 90
2020-01-07 09:00:00 1.6 7 Noroeste 9 Noroeste 0 1024.3 0.7 95
2020-01-07 08:00:00 1.6 6 Noroeste 11 Noroeste 0 1023.7 -0.1 96
2020-01-07 07:00:00 1.2 8 Noroeste 11 Oeste 0 1023.5 -0.2 97
2020-01-07 06:00:00 1.5 10 Noroeste -- -- 0 1023.6 0 97
2020-01-07 05:00:00 1.8 7 Oeste 13 Noroeste 0 1023.8 0.4 97
2020-01-07 04:00:00 2.3 8 Noroeste -- -- 0 1023.7 0.2 97
2020-01-07 03:00:00 2.5 6 Noroeste 11 Noroeste 0 1023.6 0.2 97
2020-01-07 02:00:00 3.2 8 Oeste 13 Noroeste 0 1023.4 0.2 97
2020-01-07 01:00:00 3.4 9 Noroeste 11 Noroeste 0 1023.5 0.7 96
2020-01-07 00:00:00 3.7 8 Oeste 11 Noroeste 0 1023.4 1.2 95
2020-01-06 23:00:00 4.6 8 Oeste 13 Noroeste 0 1023.2 1.3 94
2020-01-06 22:00:00 5.6 7 Noroeste 9 Noroeste 0 1022.8 1.2 92
2020-01-06 21:00:00 5.8 6 Noroeste 13 Noroeste 0 1022.2 1.1 91
2020-01-06 20:00:00 6.6 5 Oeste 8 Oeste 0 1021.9 1.3 85
2020-01-06 19:00:00 10.4 0 Calma 17 Este 0 1021.6 1.1 75
2020-01-06 18:00:00 12.2 10 Este 17 Nordeste 0 1021.1 0.8 64
2020-01-06 17:00:00 14.1 10 Este 17 Sudeste 0 1020.6 -0.3 60
2020-01-06 16:00:00 15.1 9 Sudeste 13 Sudeste 0 1020.5 -1.2 59
2020-01-06 15:00:00 15.6 6 Sudeste 13 Sudeste 0 1020.3 -2.4 55
2020-01-06 14:00:00 15.3 7 Este 13 Este 0 1020.9 -2.3 59
2020-01-06 13:00:00 14.3 3 Oeste 9 Oeste 0 1021.7 -1.4 62
2020-01-06 12:00:00 12.5 5 Oeste 13 Noroeste 0 1022.7 -0.3 62
2020-01-06 11:00:00 9.5 9 Noroeste 15 Noroeste 0 1023.2 0.7 65
2020-01-06 10:00:00 6.2 13 Noroeste 17 Noroeste 0 1023.1 1 74